createdAt,value
2022-11-14T00:00:02.487Z,8.3
2022-11-14T00:01:05.766Z,8.4
2022-11-14T00:02:09.209Z,8.4
2022-11-14T00:03:12.988Z,8.3
2022-11-14T00:04:16.255Z,8.3
2022-11-14T00:05:18.800Z,8.2
2022-11-14T00:06:21.795Z,8.3
2022-11-14T00:07:25.153Z,8.3
2022-11-14T00:08:30.545Z,8.3
2022-11-14T00:09:34.672Z,8.3
2022-11-14T00:10:38.089Z,8.3
2022-11-14T00:11:41.453Z,8.3
2022-11-14T00:12:45.164Z,8.3
2022-11-14T00:13:48.453Z,8.3
2022-11-14T00:14:50.593Z,8.3
2022-11-14T00:15:53.767Z,8.2
2022-11-14T00:16:56.873Z,8.1
2022-11-14T00:18:00.556Z,8.1
2022-11-14T00:19:03.913Z,8.1
2022-11-14T00:20:07.164Z,8.1
2022-11-14T00:21:10.162Z,8.1
2022-11-14T00:22:13.786Z,8.1
2022-11-14T00:23:16.512Z,8.1
2022-11-14T00:24:19.299Z,8.1
2022-11-14T00:25:22.442Z,8.1
2022-11-14T00:26:25.030Z,8.1
2022-11-14T00:27:28.212Z,8.1
2022-11-14T00:28:33.916Z,8.1
2022-11-14T00:29:37.232Z,8.1
2022-11-14T00:30:40.100Z,8.1
2022-11-14T00:31:43.495Z,8.1
2022-11-14T00:32:47.140Z,8.1
2022-11-14T00:33:50.560Z,8
2022-11-14T00:34:53.642Z,8
2022-11-14T00:35:56.433Z,8
2022-11-14T00:36:59.222Z,8
2022-11-14T00:38:02.574Z,8
2022-11-14T00:39:05.643Z,8
2022-11-14T00:40:08.082Z,8
2022-11-14T00:41:10.796Z,8
2022-11-14T00:42:13.245Z,8
2022-11-14T00:43:15.751Z,8
2022-11-14T00:44:19.045Z,8
2022-11-14T00:45:22.598Z,8
2022-11-14T00:46:26.256Z,8
2022-11-14T00:47:29.553Z,8
2022-11-14T00:48:34.427Z,8
2022-11-14T00:49:38.204Z,8
2022-11-14T00:50:41.210Z,7.9
2022-11-14T00:51:44.231Z,8
2022-11-14T00:52:47.099Z,8
2022-11-14T00:53:50.537Z,8
2022-11-14T00:54:53.601Z,8
2022-11-14T00:55:56.333Z,7.9
2022-11-14T00:56:59.196Z,8
2022-11-14T00:58:01.726Z,7.9
2022-11-14T00:59:04.791Z,7.9
2022-11-14T01:00:08.475Z,7.9
2022-11-14T01:01:12.334Z,7.9
2022-11-14T01:02:15.232Z,7.9
2022-11-14T01:03:18.512Z,8
2022-11-14T01:04:21.492Z,8
2022-11-14T01:05:24.845Z,8
2022-11-14T01:06:28.118Z,8
2022-11-14T01:07:31.202Z,8
2022-11-14T01:08:34.353Z,7.9
2022-11-14T01:09:36.797Z,8
2022-11-14T01:10:39.306Z,7.9
2022-11-14T01:11:42.648Z,7.9
2022-11-14T01:12:45.507Z,7.9
2022-11-14T01:13:48.341Z,7.9
2022-11-14T01:14:51.173Z,7.9
2022-11-14T01:15:54.770Z,7.9
2022-11-14T01:16:57.979Z,7.9
2022-11-14T01:18:00.791Z,7.9
2022-11-14T01:19:04.781Z,7.9
2022-11-14T01:20:08.328Z,7.9
2022-11-14T01:21:12.424Z,7.9
2022-11-14T01:22:15.420Z,7.9
2022-11-14T01:23:18.195Z,7.9
2022-11-14T01:24:21.071Z,7.9
2022-11-14T01:25:23.229Z,7.9
2022-11-14T01:26:25.954Z,7.9
2022-11-14T01:27:28.471Z,7.9
2022-11-14T01:28:32.763Z,7.9
2022-11-14T01:29:35.857Z,7.9
2022-11-14T01:30:39.551Z,8
2022-11-14T01:31:43.130Z,8
2022-11-14T01:32:46.372Z,8
2022-11-14T01:33:49.459Z,7.9
2022-11-14T01:34:52.103Z,7.9
2022-11-14T01:35:55.005Z,7.9
2022-11-14T01:36:58.455Z,7.9
2022-11-14T01:38:02.176Z,7.9
2022-11-14T01:39:05.335Z,7.9
2022-11-14T01:40:07.493Z,8
2022-11-14T01:41:10.273Z,8
2022-11-14T01:42:13.364Z,8
2022-11-14T01:43:16.736Z,8
2022-11-14T01:44:19.187Z,8
2022-11-14T01:45:22.006Z,7.9
2022-11-14T01:46:25.704Z,7.9
2022-11-14T01:47:28.750Z,7.9
2022-11-14T01:48:33.727Z,7.9
2022-11-14T01:49:37.376Z,7.8
2022-11-14T01:50:40.213Z,7.8
2022-11-14T01:51:43.951Z,7.8
2022-11-14T01:52:48.007Z,7.8
2022-11-14T01:53:51.068Z,7.8
2022-11-14T01:54:54.523Z,7.8
2022-11-14T01:55:58.013Z,7.8
2022-11-14T01:57:00.765Z,7.8
2022-11-14T01:58:03.924Z,7.8
2022-11-14T01:59:06.357Z,7.8
2022-11-14T02:00:08.801Z,7.8
2022-11-14T02:01:11.899Z,7.8
2022-11-14T02:02:14.248Z,7.8
2022-11-14T02:03:17.358Z,7.8
2022-11-14T02:04:20.629Z,7.8
2022-11-14T02:05:23.077Z,7.8
2022-11-14T02:06:25.867Z,7.8
2022-11-14T02:07:30.268Z,7.8
2022-11-14T02:08:34.544Z,7.8
2022-11-14T02:09:37.806Z,7.8
2022-11-14T02:10:40.625Z,7.8
2022-11-14T02:11:43.698Z,7.8
2022-11-14T02:12:47.136Z,7.8
2022-11-14T02:13:50.108Z,7.9
2022-11-14T02:14:52.573Z,7.9
2022-11-14T02:15:55.986Z,7.8
2022-11-14T02:17:32.232Z,7.8
2022-11-14T02:18:34.928Z,7.8
2022-11-14T02:19:39.047Z,7.8
2022-11-14T02:20:42.118Z,7.8
2022-11-14T02:21:45.032Z,7.8
2022-11-14T02:22:48.492Z,7.8
2022-11-14T02:23:52.185Z,7.8
2022-11-14T02:24:55.052Z,7.8
2022-11-14T02:25:57.559Z,7.8
2022-11-14T02:27:00.323Z,7.8
2022-11-14T02:28:03.693Z,7.8
2022-11-14T02:29:07.145Z,7.8
2022-11-14T02:30:10.182Z,7.7
2022-11-14T02:31:13.636Z,7.7
2022-11-14T02:32:17.049Z,7.7
2022-11-14T02:33:20.220Z,7.7
2022-11-14T02:34:24.156Z,7.7
2022-11-14T02:35:27.651Z,7.7
2022-11-14T02:36:31.097Z,7.6
2022-11-14T02:37:33.942Z,7.6
2022-11-14T02:38:36.931Z,7.6
2022-11-14T02:39:39.892Z,7.6
2022-11-14T02:40:42.753Z,7.6
2022-11-14T02:41:45.547Z,7.6
2022-11-14T02:42:48.343Z,7.6
2022-11-14T02:43:51.306Z,7.5
2022-11-14T02:44:54.382Z,7.5
2022-11-14T02:46:02.869Z,7.5
2022-11-14T02:47:08.715Z,7.5
2022-11-14T02:48:11.267Z,7.4
2022-11-14T02:49:15.267Z,7.5
2022-11-14T02:50:18.857Z,7.5
2022-11-14T02:51:22.334Z,7.5
2022-11-14T02:52:25.460Z,7.5
2022-11-14T02:53:28.362Z,7.5
2022-11-14T02:54:31.652Z,7.4
2022-11-14T02:55:34.894Z,7.5
2022-11-14T02:56:38.374Z,7.5
2022-11-14T02:57:41.080Z,7.4
2022-11-14T02:58:43.507Z,7.4
2022-11-14T02:59:46.497Z,7.5
2022-11-14T03:01:22.958Z,7.4
2022-11-14T03:02:26.835Z,7.4
2022-11-14T03:03:29.645Z,7.4
2022-11-14T03:04:32.824Z,7.4
2022-11-14T03:05:36.751Z,7.4
2022-11-14T03:06:39.375Z,7.4
2022-11-14T03:07:42.185Z,7.4
2022-11-14T03:08:46.002Z,7.4
2022-11-14T03:09:49.215Z,7.3
2022-11-14T03:10:53.046Z,7.4
2022-11-14T03:11:56.472Z,7.3
2022-11-14T03:12:59.924Z,7.3
2022-11-14T03:14:03.068Z,7.4
2022-11-14T03:15:05.515Z,7.3
2022-11-14T03:16:08.302Z,7.3
2022-11-14T03:17:11.438Z,7.3
2022-11-14T03:18:13.944Z,7.3
2022-11-14T03:19:16.197Z,7.3
2022-11-14T03:20:19.273Z,7.3
2022-11-14T03:21:22.381Z,7.3
2022-11-14T03:22:25.916Z,7.3
2022-11-14T03:23:29.077Z,7.3
2022-11-14T03:24:31.995Z,7.3
2022-11-14T03:25:34.939Z,7.3
2022-11-14T03:26:38.338Z,7.3
2022-11-14T03:27:41.430Z,7.3
2022-11-14T03:28:44.535Z,7.3
2022-11-14T03:29:47.377Z,7.3
2022-11-14T03:30:50.437Z,7.3
2022-11-14T03:31:53.031Z,7.3
2022-11-14T03:32:56.372Z,7.3
2022-11-14T03:33:59.889Z,7.3
2022-11-14T03:35:02.673Z,7.3
2022-11-14T03:36:05.375Z,7.3
2022-11-14T03:37:09.344Z,7.3
2022-11-14T03:38:12.950Z,7.3
2022-11-14T03:39:16.089Z,7.3
2022-11-14T03:40:19.087Z,7.3
2022-11-14T03:41:22.335Z,7.3
2022-11-14T03:42:26.089Z,7.2
2022-11-14T03:43:28.840Z,7.2
2022-11-14T03:44:31.709Z,7.2
2022-11-14T03:45:35.164Z,7.2
2022-11-14T03:46:38.522Z,7.1
2022-11-14T03:47:41.518Z,7.1
2022-11-14T03:48:44.044Z,7.1
2022-11-14T03:49:46.847Z,7.1
2022-11-14T03:50:49.277Z,7.1
2022-11-14T03:51:52.385Z,7.1
2022-11-14T03:52:55.677Z,7.1
2022-11-14T03:53:59.246Z,7
2022-11-14T03:55:02.039Z,7.1
2022-11-14T03:56:05.276Z,7
2022-11-14T03:57:07.991Z,7
2022-11-14T03:58:11.442Z,7.1
2022-11-14T03:59:13.683Z,7
2022-11-14T04:00:17.492Z,7
2022-11-14T04:01:21.187Z,7.1
2022-11-14T04:02:24.095Z,7.1
2022-11-14T04:03:26.337Z,7.1
2022-11-14T04:04:29.069Z,7
2022-11-14T04:05:32.215Z,7
2022-11-14T04:06:35.006Z,7
2022-11-14T04:07:37.865Z,7
2022-11-14T04:08:41.518Z,7
2022-11-14T04:09:44.530Z,6.9
2022-11-14T04:10:47.683Z,7
2022-11-14T04:11:50.283Z,7
2022-11-14T04:12:52.921Z,6.9
2022-11-14T04:13:56.037Z,6.9
2022-11-14T04:14:58.751Z,6.9
2022-11-14T04:16:01.824Z,6.9
2022-11-14T04:17:04.613Z,6.9
2022-11-14T04:18:07.587Z,6.9
2022-11-14T04:19:10.583Z,6.8
2022-11-14T04:20:13.412Z,6.8
2022-11-14T04:21:16.596Z,6.8
2022-11-14T04:22:19.490Z,6.8
2022-11-14T04:23:22.567Z,6.8
2022-11-14T04:24:26.787Z,6.8
2022-11-14T04:25:30.360Z,6.8
2022-11-14T04:26:33.064Z,6.8
2022-11-14T04:27:35.725Z,6.8
2022-11-14T04:28:39.189Z,6.8
2022-11-14T04:29:43.307Z,6.8
2022-11-14T04:30:46.441Z,6.8
2022-11-14T04:31:48.891Z,6.8
2022-11-14T04:32:51.341Z,6.8
2022-11-14T04:33:54.441Z,6.8
2022-11-14T04:34:57.406Z,6.8
2022-11-14T04:36:00.873Z,6.8
2022-11-14T04:37:04.101Z,6.8
2022-11-14T04:38:07.821Z,6.8
2022-11-14T04:39:11.563Z,6.8
2022-11-14T04:40:14.844Z,6.8
2022-11-14T04:41:18.402Z,6.8
2022-11-14T04:42:21.553Z,6.7
2022-11-14T04:43:24.674Z,6.7
2022-11-14T04:44:28.026Z,6.7
2022-11-14T04:45:32.260Z,6.7
2022-11-14T04:46:35.136Z,6.8
2022-11-14T04:47:38.201Z,6.7
2022-11-14T04:48:40.095Z,6.7
2022-11-14T04:49:42.961Z,6.7
2022-11-14T04:50:45.968Z,6.7
2022-11-14T04:51:49.665Z,6.7
2022-11-14T04:52:53.048Z,6.7
2022-11-14T04:53:55.862Z,6.7
2022-11-14T04:54:58.927Z,6.7
2022-11-14T04:56:02.505Z,6.7
2022-11-14T04:57:05.807Z,6.8
2022-11-14T04:58:08.130Z,6.7
2022-11-14T04:59:20.794Z,6.7
2022-11-14T05:00:24.417Z,6.7
2022-11-14T05:01:28.375Z,6.7
2022-11-14T05:02:31.965Z,6.8
2022-11-14T05:03:35.139Z,6.7
2022-11-14T05:04:37.841Z,6.7
2022-11-14T05:05:44.029Z,6.7
2022-11-14T05:06:47.791Z,6.7
2022-11-14T05:07:50.028Z,6.7
2022-11-14T05:08:52.462Z,6.7
2022-11-14T05:09:55.707Z,6.7
2022-11-14T05:10:58.787Z,6.7
2022-11-14T05:12:02.621Z,6.7
2022-11-14T05:13:06.092Z,6.7
2022-11-14T05:14:08.962Z,6.7
2022-11-14T05:15:11.982Z,6.8
2022-11-14T05:16:15.259Z,6.8
2022-11-14T05:17:18.515Z,6.8
2022-11-14T05:18:21.951Z,6.8
2022-11-14T05:19:25.043Z,6.8
2022-11-14T05:20:28.302Z,6.8
2022-11-14T05:21:30.727Z,6.8
2022-11-14T05:22:33.850Z,6.8
2022-11-14T05:23:37.466Z,6.8
2022-11-14T05:24:40.598Z,6.8
2022-11-14T05:25:43.392Z,6.8
2022-11-14T05:26:46.563Z,6.8
2022-11-14T05:27:49.932Z,6.8
2022-11-14T05:28:53.743Z,6.8
2022-11-14T05:29:56.830Z,6.7
2022-11-14T05:31:00.543Z,6.7
2022-11-14T05:32:03.416Z,6.8
2022-11-14T05:33:06.662Z,6.7
2022-11-14T05:34:10.469Z,6.6
2022-11-14T05:35:13.538Z,6.6
2022-11-14T05:36:16.071Z,6.6
2022-11-14T05:37:19.407Z,6.6
2022-11-14T05:38:21.678Z,6.6
2022-11-14T05:39:23.903Z,6.6
2022-11-14T05:40:26.695Z,6.6
2022-11-14T05:41:29.923Z,6.5
2022-11-14T05:42:33.068Z,6.5
2022-11-14T05:43:35.620Z,6.5
2022-11-14T05:44:38.725Z,6.5
2022-11-14T05:45:42.371Z,6.5
2022-11-14T05:46:44.410Z,6.5
2022-11-14T05:47:47.769Z,6.5
2022-11-14T05:48:51.356Z,6.5
2022-11-14T05:49:54.364Z,6.5
2022-11-14T05:50:57.552Z,6.5
2022-11-14T05:52:00.614Z,6.5
2022-11-14T05:53:03.414Z,6.5
2022-11-14T05:54:05.938Z,6.5
2022-11-14T05:55:08.367Z,6.5
2022-11-14T05:56:11.527Z,6.5
2022-11-14T05:57:15.236Z,6.4
2022-11-14T05:58:18.226Z,6.4
2022-11-14T05:59:21.134Z,6.4
2022-11-14T06:00:24.874Z,6.3
2022-11-14T06:01:28.143Z,6.3
2022-11-14T06:02:32.010Z,6.3
2022-11-14T06:03:34.584Z,6.3
2022-11-14T06:04:38.030Z,6.3
2022-11-14T06:05:41.485Z,6.2
2022-11-14T06:06:44.680Z,6.2
2022-11-14T06:07:47.858Z,6.2
2022-11-14T06:08:51.256Z,6.1
2022-11-14T06:09:54.052Z,6.1
2022-11-14T06:10:57.409Z,6.1
2022-11-14T06:11:59.941Z,6
2022-11-14T06:13:02.723Z,6.1
2022-11-14T06:14:12.749Z,6
2022-11-14T06:15:16.451Z,6
2022-11-14T06:16:19.646Z,6
2022-11-14T06:17:22.180Z,6.1
2022-11-14T06:18:25.295Z,6.1
2022-11-14T06:19:28.438Z,6
2022-11-14T06:20:31.959Z,6.1
2022-11-14T06:21:35.373Z,6
2022-11-14T06:22:38.088Z,6.1
2022-11-14T06:23:41.014Z,6.1
2022-11-14T06:24:44.115Z,6
2022-11-14T06:25:46.637Z,6
2022-11-14T06:26:50.092Z,6
2022-11-14T06:27:52.884Z,6
2022-11-14T06:28:55.672Z,6
2022-11-14T06:29:58.946Z,6
2022-11-14T06:31:01.508Z,6
2022-11-14T06:32:05.226Z,6
2022-11-14T06:33:08.573Z,6
2022-11-14T06:34:11.503Z,6
2022-11-14T06:35:14.307Z,6
2022-11-14T06:36:17.800Z,6.1
2022-11-14T06:37:21.176Z,6.1
2022-11-14T06:38:24.570Z,6
2022-11-14T06:39:28.110Z,6.1
2022-11-14T06:40:31.382Z,6.1
2022-11-14T06:41:33.817Z,6.1
2022-11-14T06:42:37.093Z,6
2022-11-14T06:43:40.390Z,6
2022-11-14T06:44:42.994Z,6
2022-11-14T06:45:46.170Z,6
2022-11-14T06:46:49.331Z,6
2022-11-14T06:47:52.798Z,6
2022-11-14T06:48:55.599Z,6
2022-11-14T06:49:58.292Z,5.9
2022-11-14T06:51:00.910Z,5.9
2022-11-14T06:52:04.419Z,5.9
2022-11-14T06:53:07.721Z,5.9
2022-11-14T06:54:11.231Z,5.9
2022-11-14T06:55:14.124Z,5.9
2022-11-14T06:56:18.592Z,5.9
2022-11-14T06:57:21.579Z,5.9
2022-11-14T06:58:24.657Z,5.9
2022-11-14T06:59:27.365Z,6
2022-11-14T07:00:30.152Z,6
2022-11-14T07:01:33.143Z,6
2022-11-14T07:02:37.121Z,6
2022-11-14T07:03:39.993Z,6
2022-11-14T07:04:42.993Z,6
2022-11-14T07:05:46.053Z,6
2022-11-14T07:06:49.453Z,6
2022-11-14T07:07:52.695Z,6.1
2022-11-14T07:08:55.491Z,6.1
2022-11-14T07:09:58.627Z,6.1
2022-11-14T07:11:01.985Z,6.2
2022-11-14T07:12:05.043Z,6.2
2022-11-14T07:13:08.405Z,6.2
2022-11-14T07:14:10.918Z,6.2
2022-11-14T07:15:13.790Z,6.2
2022-11-14T07:16:16.691Z,6.2
2022-11-14T07:17:20.416Z,6.2
2022-11-14T07:18:23.528Z,6.3
2022-11-14T07:19:26.970Z,6.3
2022-11-14T07:20:29.807Z,6.2
2022-11-14T07:21:33.204Z,6.2
2022-11-14T07:22:36.547Z,6.2
2022-11-14T07:23:40.058Z,6.2
2022-11-14T07:24:43.856Z,6.2
2022-11-14T07:25:46.657Z,6.2
2022-11-14T07:26:50.373Z,6.2
2022-11-14T07:27:54.118Z,6.1
2022-11-14T07:29:04.185Z,6.1
2022-11-14T07:30:07.212Z,6.2
2022-11-14T07:31:10.676Z,6.2
2022-11-14T07:32:14.128Z,6.2
2022-11-14T07:33:16.951Z,6.2
2022-11-14T07:34:19.944Z,6.2
2022-11-14T07:35:23.411Z,6.2
2022-11-14T07:36:26.780Z,6.2
2022-11-14T07:37:30.153Z,6.2
2022-11-14T07:38:34.704Z,6.2
2022-11-14T07:39:38.154Z,6.2
2022-11-14T07:40:41.791Z,6.3
2022-11-14T07:41:44.578Z,6.3
2022-11-14T07:42:47.114Z,6.3
2022-11-14T07:43:50.184Z,6.4
2022-11-14T07:44:53.461Z,6.4
2022-11-14T07:45:56.534Z,6.4
2022-11-14T07:46:59.640Z,6.4
2022-11-14T07:48:02.620Z,6.4
2022-11-14T07:49:05.343Z,6.4
2022-11-14T07:50:08.701Z,6.4
2022-11-14T07:51:12.369Z,6.5
2022-11-14T07:52:14.701Z,6.5
2022-11-14T07:53:17.872Z,6.5
2022-11-14T07:54:21.620Z,6.5
2022-11-14T07:55:25.481Z,6.5
2022-11-14T07:56:28.631Z,6.6
2022-11-14T07:57:50.009Z,6.6
2022-11-14T07:58:53.585Z,6.6
2022-11-14T07:59:56.306Z,6.6
2022-11-14T08:00:59.632Z,6.6
2022-11-14T08:02:03.091Z,6.6
2022-11-14T08:03:06.548Z,6.6
2022-11-14T08:04:10.277Z,6.6
2022-11-14T08:05:13.961Z,6.6
2022-11-14T08:06:16.883Z,6.6
2022-11-14T08:07:20.745Z,6.6
2022-11-14T08:08:23.927Z,6.7
2022-11-14T08:09:26.741Z,6.7
2022-11-14T08:10:35.769Z,6.8
2022-11-14T08:11:39.143Z,6.8
2022-11-14T08:12:42.410Z,6.8
2022-11-14T08:13:45.193Z,6.8
2022-11-14T08:14:48.338Z,6.9
2022-11-14T08:15:51.510Z,6.9
2022-11-14T08:16:54.486Z,6.8
2022-11-14T08:17:58.010Z,6.8
2022-11-14T08:19:01.445Z,6.8
2022-11-14T08:20:04.654Z,6.8
2022-11-14T08:21:08.504Z,6.8
2022-11-14T08:22:11.961Z,6.8
2022-11-14T08:23:15.306Z,6.8
2022-11-14T08:24:18.484Z,6.8
2022-11-14T08:25:21.279Z,6.8
2022-11-14T08:26:24.438Z,6.9
2022-11-14T08:27:27.227Z,6.9
2022-11-14T08:28:32.146Z,6.9
2022-11-14T08:29:34.504Z,7
2022-11-14T08:30:37.773Z,7
2022-11-14T08:31:40.776Z,7
2022-11-14T08:32:43.556Z,7
2022-11-14T08:33:46.370Z,7
2022-11-14T08:34:49.255Z,7.1
2022-11-14T08:35:52.092Z,7.1
2022-11-14T08:36:55.796Z,7.1
2022-11-14T08:37:59.279Z,7.2
2022-11-14T08:39:03.713Z,7.2
2022-11-14T08:40:06.863Z,7.2
2022-11-14T08:41:09.945Z,7.2
2022-11-14T08:42:13.023Z,7.3
2022-11-14T08:43:15.919Z,7.3
2022-11-14T08:44:19.671Z,7.3
2022-11-14T08:45:22.533Z,7.4
2022-11-14T08:46:25.604Z,7.5
2022-11-14T08:47:28.757Z,7.6
2022-11-14T08:48:34.766Z,7.6
2022-11-14T08:49:37.962Z,7.7
2022-11-14T08:50:41.304Z,7.8
2022-11-14T08:51:44.413Z,7.9
2022-11-14T08:52:47.892Z,8.1
2022-11-14T08:53:51.631Z,8.1
2022-11-14T08:54:55.075Z,8.2
2022-11-14T08:55:58.695Z,8.3
2022-11-14T08:57:02.049Z,8.3
2022-11-14T08:58:05.503Z,8.4
2022-11-14T08:59:08.714Z,8.4
2022-11-14T09:00:12.253Z,8.5
2022-11-14T09:01:15.460Z,8.6
2022-11-14T09:02:19.071Z,8.7
2022-11-14T09:03:22.434Z,8.7
2022-11-14T09:04:25.911Z,8.6
2022-11-14T09:05:28.993Z,8.5
2022-11-14T09:06:32.060Z,8.6
2022-11-14T09:07:35.425Z,8.6
2022-11-14T09:08:38.792Z,8.7
2022-11-14T09:09:41.982Z,8.7
2022-11-14T09:10:45.332Z,8.8
2022-11-14T09:11:48.515Z,8.8
2022-11-14T09:12:51.680Z,8.9
2022-11-14T09:13:54.771Z,8.8
2022-11-14T09:14:58.210Z,8.8
2022-11-14T09:16:01.665Z,8.9
2022-11-14T09:17:07.928Z,8.9
2022-11-14T09:18:10.993Z,8.9
2022-11-14T09:19:14.205Z,8.8
2022-11-14T09:20:17.315Z,8.7
2022-11-14T09:21:21.051Z,8.9
2022-11-14T09:22:24.463Z,8.9
2022-11-14T09:23:31.139Z,9
2022-11-14T09:24:34.809Z,9
2022-11-14T09:25:38.164Z,9.1
2022-11-14T09:26:40.770Z,9.1
2022-11-14T09:27:43.857Z,9.2
2022-11-14T09:28:46.854Z,9.3
2022-11-14T09:29:50.109Z,9.4
2022-11-14T09:30:53.495Z,9.5
2022-11-14T09:31:56.429Z,9.5
2022-11-14T09:32:59.449Z,9.5
2022-11-14T09:34:01.989Z,9.7
2022-11-14T09:35:05.149Z,9.7
2022-11-14T09:36:08.056Z,9.9
2022-11-14T09:37:10.996Z,10
2022-11-14T09:38:14.461Z,9.9
2022-11-14T09:39:17.620Z,10
2022-11-14T09:40:21.700Z,10.1
2022-11-14T09:41:24.973Z,10.2
2022-11-14T09:42:28.059Z,10.3
2022-11-14T09:43:32.999Z,10.4
2022-11-14T09:44:36.254Z,10.5
2022-11-14T09:45:40.099Z,10.6
2022-11-14T09:46:43.923Z,10.6
2022-11-14T09:47:46.920Z,10.8
2022-11-14T09:48:50.306Z,10.6
2022-11-14T09:49:53.153Z,10.7
2022-11-14T09:50:56.308Z,10.8
2022-11-14T09:51:59.034Z,10.9
2022-11-14T09:53:02.193Z,11.1
2022-11-14T09:54:05.297Z,11.1
2022-11-14T09:55:07.905Z,11.3
2022-11-14T09:56:11.090Z,11.2
2022-11-14T09:57:14.626Z,11.3
2022-11-14T09:58:17.812Z,11.3
2022-11-14T09:59:21.409Z,11.2
2022-11-14T10:00:24.815Z,11.1
2022-11-14T10:01:28.977Z,11.1
2022-11-14T10:02:32.200Z,11.1
2022-11-14T10:03:35.551Z,11.2
2022-11-14T10:04:38.694Z,11.2
2022-11-14T10:05:41.582Z,11.2
2022-11-14T10:06:45.266Z,11.3
2022-11-14T10:07:49.028Z,11.4
2022-11-14T10:08:52.499Z,11.5
2022-11-14T10:09:55.576Z,11.5
2022-11-14T10:10:58.658Z,11.6
2022-11-14T10:12:02.046Z,11.5
2022-11-14T10:13:05.230Z,11.6
2022-11-14T10:14:07.478Z,11.4
2022-11-14T10:15:10.944Z,11.6
2022-11-14T10:16:13.764Z,11.7
2022-11-14T10:17:17.595Z,11.9
2022-11-14T10:18:21.265Z,11.5
2022-11-14T10:19:24.417Z,11.4
2022-11-14T10:20:27.226Z,11.5
2022-11-14T10:21:30.973Z,11.6
2022-11-14T10:22:33.953Z,11.7
2022-11-14T10:23:37.223Z,11.8
2022-11-14T10:24:40.390Z,11.9
2022-11-14T10:25:46.046Z,12
2022-11-14T10:26:49.160Z,12
2022-11-14T10:28:06.274Z,12
2022-11-14T10:29:09.404Z,11.9
2022-11-14T10:30:12.858Z,12
2022-11-14T10:31:16.032Z,11.9
2022-11-14T10:32:19.780Z,11.9
2022-11-14T10:33:22.678Z,11.8
2022-11-14T10:34:25.503Z,11.8
2022-11-14T10:35:36.838Z,11.7
2022-11-14T10:36:40.508Z,11.8
2022-11-14T10:37:43.114Z,11.9
2022-11-14T10:38:46.298Z,12
2022-11-14T10:39:49.965Z,12.1
2022-11-14T10:40:53.137Z,12.3
2022-11-14T10:42:09.163Z,12.4
2022-11-14T10:43:12.486Z,12.5
2022-11-14T10:44:16.211Z,12.5
2022-11-14T10:45:19.100Z,12.5
2022-11-14T10:46:22.316Z,12.5
2022-11-14T10:47:25.793Z,12.5
2022-11-14T10:48:31.483Z,12.6
2022-11-14T10:49:35.552Z,12.7
2022-11-14T10:50:39.258Z,12.8
2022-11-14T10:51:42.992Z,13
2022-11-14T10:52:45.474Z,13.1
2022-11-14T10:53:48.846Z,13.1
2022-11-14T10:54:52.331Z,13.1
2022-11-14T10:56:11.107Z,13.1
2022-11-14T10:57:14.754Z,13
2022-11-14T10:58:18.524Z,13.1
2022-11-14T10:59:21.918Z,13
2022-11-14T11:00:24.534Z,13
2022-11-14T11:01:28.383Z,13.1
2022-11-14T11:02:38.062Z,13
2022-11-14T11:03:41.727Z,13
2022-11-14T11:04:45.544Z,13
2022-11-14T11:05:49.248Z,13.2
2022-11-14T11:06:52.471Z,13.2
2022-11-14T11:07:55.489Z,13.4
2022-11-14T11:08:58.167Z,13.6
2022-11-14T11:10:01.346Z,13.7
2022-11-14T11:11:04.410Z,13.8
2022-11-14T11:12:08.448Z,13.8
2022-11-14T11:13:12.289Z,13.8
2022-11-14T11:14:15.680Z,13.7
2022-11-14T11:15:19.182Z,13.7
2022-11-14T11:16:21.700Z,13.8
2022-11-14T11:17:43.054Z,13.8
2022-11-14T11:18:52.476Z,14
2022-11-14T11:19:55.832Z,14.1
2022-11-14T11:20:58.840Z,14.1
2022-11-14T11:22:02.641Z,14.2
2022-11-14T11:23:06.032Z,14.4
2022-11-14T11:24:08.557Z,14.4
2022-11-14T11:25:11.351Z,14.6
2022-11-14T11:26:14.515Z,14.7
2022-11-14T11:27:17.518Z,14.7
2022-11-14T11:28:20.896Z,14.8
2022-11-14T11:29:24.642Z,14.8
2022-11-14T11:30:28.029Z,14.9
2022-11-14T11:31:30.869Z,14.9
2022-11-14T11:32:33.386Z,15
2022-11-14T11:33:36.693Z,15.1
2022-11-14T11:34:39.958Z,15.1
2022-11-14T11:35:43.035Z,15.1
2022-11-14T11:36:45.823Z,14.9
2022-11-14T11:37:48.816Z,14.8
2022-11-14T11:38:52.541Z,14.9
2022-11-14T11:39:55.432Z,14.8
2022-11-14T11:40:58.290Z,14.9
2022-11-14T11:42:11.858Z,14.8
2022-11-14T11:43:44.383Z,14.9
2022-11-14T11:44:47.723Z,14.8
2022-11-14T11:45:51.211Z,14.8
2022-11-14T11:46:54.375Z,14.9
2022-11-14T11:47:57.391Z,14.8
2022-11-14T11:49:00.973Z,14.7
2022-11-14T11:50:04.624Z,14.8
2022-11-14T11:51:08.058Z,14.9
2022-11-14T11:52:11.404Z,14.9
2022-11-14T11:53:14.843Z,14.8
2022-11-14T11:54:17.952Z,14.9
2022-11-14T11:55:21.203Z,14.8
2022-11-14T11:56:24.057Z,14.9
2022-11-14T11:57:26.286Z,14.9
2022-11-14T11:58:29.659Z,15
2022-11-14T11:59:32.373Z,14.9
2022-11-14T12:00:35.848Z,14.9
2022-11-14T12:01:39.296Z,15
2022-11-14T12:02:51.984Z,15.1
2022-11-14T12:03:56.150Z,15.2
2022-11-14T12:04:59.358Z,15.2
2022-11-14T12:06:02.478Z,15.3
2022-11-14T12:07:05.719Z,15.4
2022-11-14T12:08:09.283Z,15.5
2022-11-14T12:09:12.377Z,15.3
2022-11-14T12:10:16.634Z,15.5
2022-11-14T12:11:19.932Z,15.5
2022-11-14T12:12:22.936Z,15.5
2022-11-14T12:13:25.670Z,15.5
2022-11-14T12:14:28.572Z,15.4
2022-11-14T12:15:32.006Z,15.2
2022-11-14T12:16:35.470Z,15.2
2022-11-14T12:17:39.541Z,15.1
2022-11-14T12:18:42.984Z,15
2022-11-14T12:19:46.127Z,15
2022-11-14T12:20:49.499Z,15
2022-11-14T12:22:00.386Z,15
2022-11-14T12:23:03.996Z,15.1
2022-11-14T12:24:07.447Z,15.2
2022-11-14T12:25:10.440Z,15.1
2022-11-14T12:26:14.158Z,15.1
2022-11-14T12:27:17.148Z,15.1
2022-11-14T12:28:20.310Z,15.1
2022-11-14T12:29:26.663Z,15.1
2022-11-14T12:30:30.024Z,15
2022-11-14T12:31:33.443Z,15
2022-11-14T12:32:36.637Z,15
2022-11-14T12:33:40.653Z,15.1
2022-11-14T12:34:44.192Z,15.1
2022-11-14T12:35:47.239Z,15.2
2022-11-14T12:36:50.176Z,15.1
2022-11-14T12:37:57.932Z,15.1
2022-11-14T12:39:01.572Z,14.9
2022-11-14T12:40:04.877Z,14.9
2022-11-14T12:41:08.179Z,14.8
2022-11-14T12:42:11.700Z,14.8
2022-11-14T12:43:14.504Z,14.9
2022-11-14T12:44:17.686Z,15
2022-11-14T12:45:20.927Z,15
2022-11-14T12:46:23.919Z,15.1
2022-11-14T12:47:26.974Z,15.2
2022-11-14T12:48:30.461Z,15.1
2022-11-14T12:49:36.760Z,14.8
2022-11-14T12:50:40.414Z,14.8
2022-11-14T12:51:43.896Z,14.8
2022-11-14T12:52:46.694Z,14.8
2022-11-14T12:53:50.273Z,14.8
2022-11-14T12:54:53.422Z,14.7
2022-11-14T12:55:56.865Z,14.7
2022-11-14T12:56:59.993Z,14.6
2022-11-14T12:58:03.447Z,14.5
2022-11-14T12:59:06.868Z,14.5
2022-11-14T13:00:09.642Z,14.6
2022-11-14T13:01:13.880Z,14.7
2022-11-14T13:02:23.689Z,14.6
2022-11-14T13:03:27.123Z,14.5
2022-11-14T13:04:31.588Z,14.4
2022-11-14T13:05:34.748Z,14.3
2022-11-14T13:06:37.824Z,14.3
2022-11-14T13:07:40.597Z,14.1
2022-11-14T13:08:43.756Z,14
2022-11-14T13:09:47.867Z,13.9
2022-11-14T13:10:51.005Z,13.9
2022-11-14T13:11:54.156Z,13.7
2022-11-14T13:12:57.230Z,13.7
2022-11-14T13:13:59.756Z,13.6
2022-11-14T13:15:03.234Z,13.7
2022-11-14T13:16:06.225Z,13.7
2022-11-14T13:17:08.841Z,13.8
2022-11-14T13:18:11.634Z,13.6
2022-11-14T13:19:15.231Z,13.6
2022-11-14T13:20:18.618Z,13.5
2022-11-14T13:21:22.077Z,13.5
2022-11-14T13:22:24.780Z,13.5
2022-11-14T13:23:30.483Z,13.4
2022-11-14T13:24:33.453Z,13.3
2022-11-14T13:25:36.392Z,13.1
2022-11-14T13:26:39.654Z,13
2022-11-14T13:28:25.844Z,12.9
2022-11-14T13:29:29.136Z,12.8
2022-11-14T13:30:32.495Z,12.8
2022-11-14T13:31:35.687Z,12.8
2022-11-14T13:32:39.145Z,12.8
2022-11-14T13:33:41.665Z,12.8
2022-11-14T13:34:45.122Z,12.7
2022-11-14T13:35:48.864Z,12.6
2022-11-14T13:36:51.447Z,12.5
2022-11-14T13:37:55.071Z,12.4
2022-11-14T13:38:57.906Z,12.4
2022-11-14T13:40:01.039Z,12.3
2022-11-14T13:41:04.655Z,12.3
2022-11-14T13:42:07.827Z,12.2
2022-11-14T13:43:11.025Z,12.2
2022-11-14T13:44:13.527Z,12.2
2022-11-14T13:45:16.617Z,12.2
2022-11-14T13:46:20.341Z,12.2
2022-11-14T13:47:23.398Z,12.2
2022-11-14T13:48:26.683Z,12.2
2022-11-14T13:49:30.033Z,12.2
2022-11-14T13:50:33.680Z,12.1
2022-11-14T13:51:45.892Z,12.1
2022-11-14T13:52:49.238Z,12.1
2022-11-14T13:53:52.227Z,11.9
2022-11-14T13:54:55.375Z,11.9
2022-11-14T13:55:57.974Z,11.9
2022-11-14T13:57:01.080Z,11.8
2022-11-14T13:58:04.250Z,11.7
2022-11-14T13:59:07.882Z,11.7
2022-11-14T14:00:21.404Z,11.5
2022-11-14T14:01:25.512Z,11.5
2022-11-14T14:02:28.626Z,11.5
2022-11-14T14:03:34.004Z,11.5
2022-11-14T14:04:37.118Z,11.5
2022-11-14T14:05:40.478Z,11.4
2022-11-14T14:06:44.039Z,11.3
2022-11-14T14:07:47.811Z,11.3
2022-11-14T14:08:51.368Z,11.2
2022-11-14T14:09:55.004Z,11.2
2022-11-14T14:10:57.815Z,11.3
2022-11-14T14:12:00.873Z,11.3
2022-11-14T14:13:04.673Z,11.2
2022-11-14T14:14:07.375Z,11.2
2022-11-14T14:15:10.183Z,11.1
2022-11-14T14:16:13.892Z,11.1
2022-11-14T14:17:17.254Z,11.1
2022-11-14T14:18:19.702Z,11.1
2022-11-14T14:19:27.876Z,11
2022-11-14T14:20:30.601Z,11
2022-11-14T14:21:33.317Z,11
2022-11-14T14:22:36.776Z,11
2022-11-14T14:23:40.066Z,11
2022-11-14T14:24:43.810Z,11
2022-11-14T14:25:46.712Z,10.9
2022-11-14T14:26:49.852Z,10.9
2022-11-14T14:27:52.571Z,10.9
2022-11-14T14:28:55.672Z,10.9
2022-11-14T14:29:59.317Z,10.9
2022-11-14T14:31:02.005Z,10.9
2022-11-14T14:32:04.839Z,10.9
2022-11-14T14:33:07.012Z,10.9
2022-11-14T14:34:10.096Z,10.9